Time;durP1;ratioP1;P1;durP2;ratioP2;P2;SDS_P1;SDS_P2;PMS_P1;PMS_P2;Temp;Humidity;BMP_temperature;BMP_pressure;BME280_temperature;BME280_humidity;BME280_pressure;Samples;Min_cycle;Max_cycle;Signal;HPM_P1;HPM_P2
2021/08/17 00:00:34;;;;;;;7.88;5.03;;;;;;;18.80;54.05;96806.91;5083869;28;20056;-68
2021/08/17 00:03:02;;;;;;;6.10;4.68;;;;;;;19.12;53.78;96851.22;5082832;28;20075;-68
2021/08/17 00:05:29;;;;;;;6.57;4.60;;;;;;;18.89;54.55;96838.00;5083512;28;20141;-68
2021/08/17 00:07:55;;;;;;;7.35;4.55;;;;;;;18.91;54.44;96855.22;5083706;28;20175;-68
2021/08/17 00:10:23;;;;;;;7.22;4.57;;;;;;;18.55;54.02;96772.91;5082207;28;20062;-68
2021/08/17 00:12:50;;;;;;;6.13;4.40;;;;;;;18.84;54.65;96835.69;5082363;28;20056;-68
2021/08/17 00:15:17;;;;;;;7.95;4.70;;;;;;;18.92;54.58;96859.59;5082072;28;20051;-69
2021/08/17 00:17:44;;;;;;;9.75;5.45;;;;;;;18.25;54.98;96786.25;5082524;28;20495;-67
2021/08/17 00:20:12;;;;;;;8.18;4.75;;;;;;;18.79;55.13;96855.84;5081968;28;20056;-67
2021/08/17 00:22:40;;;;;;;7.28;4.72;;;;;;;18.07;55.64;96752.91;5082844;28;20052;-67
2021/08/17 00:25:08;;;;;;;8.13;5.40;;;;;;;18.62;55.86;96834.50;5083090;28;20087;-66
2021/08/17 00:27:36;;;;;;;5.82;4.93;;;;;;;18.76;55.75;96856.69;5081879;28;20052;-67
2021/08/17 00:30:06;;;;;;;6.07;4.38;;;;;;;18.81;55.62;96841.38;5081693;28;20067;-67
2021/08/17 00:32:34;;;;;;;11.55;5.30;;;;;;;18.68;56.55;96846.03;5082109;28;20056;-66
2021/08/17 00:35:01;;;;;;;9.07;5.75;;;;;;;18.37;57.63;96834.09;5081556;28;20542;-66
2021/08/17 00:37:28;;;;;;;6.63;5.50;;;;;;;18.41;58.16;96857.31;5082975;28;20598;-67
2021/08/17 00:39:55;;;;;;;11.65;5.90;;;;;;;18.00;58.63;96793.03;5081644;28;20063;-65
2021/08/17 00:42:22;;;;;;;7.28;5.18;;;;;;;18.39;58.53;96847.72;5083692;28;20541;-67
2021/08/17 00:44:50;;;;;;;5.55;4.22;;;;;;;18.40;57.20;96852.91;5082844;28;20521;-68
2021/08/17 00:47:16;;;;;;;6.50;4.93;;;;;;;18.26;57.41;96836.28;5081585;28;20484;-67
2021/08/17 00:49:47;;;;;;;7.57;4.78;;;;;;;17.96;57.90;96805.53;5081890;28;20139;-67
2021/08/17 00:52:15;;;;;;;6.45;4.55;;;;;;;17.69;57.37;96755.13;5081399;28;20056;-70
2021/08/17 00:54:45;;;;;;;5.28;4.72;;;;;;;18.00;57.27;96821.06;5084173;28;20067;-67
2021/08/17 00:57:12;;;;;;;6.35;4.70;;;;;;;18.21;57.34;96870.41;5087410;28;20058;-67
2021/08/17 00:59:40;;;;;;;6.68;4.53;;;;;;;17.48;57.31;96732.25;5086237;28;20060;-67
2021/08/17 01:02:07;;;;;;;7.43;4.72;;;;;;;18.22;57.46;96843.19;5087365;28;20434;-66
2021/08/17 01:04:41;;;;;;;6.10;3.95;;;;;;;18.22;57.47;96843.97;5085737;28;20056;-67
2021/08/17 01:07:08;;;;;;;;;;;;;;;18.22;57.35;96848.78;5087735;28;20048;-68
2021/08/17 01:09:45;;;;;;;6.15;4.38;;;;;;;18.08;57.56;96844.97;5087233;28;19923;-68
2021/08/17 01:12:11;;;;;;;5.88;4.65;;;;;;;18.01;57.94;96838.69;5085663;28;20117;-68
2021/08/17 01:14:38;;;;;;;5.93;4.53;;;;;;;17.69;57.97;96805.53;5084997;28;20438;-68
2021/08/17 01:17:05;;;;;;;8.05;4.38;;;;;;;17.73;57.68;96788.69;5085855;28;20062;-67
2021/08/17 01:19:35;;;;;;;8.75;4.45;;;;;;;18.11;57.28;96841.31;5085593;28;20052;-67
2021/08/17 01:22:04;;;;;;;5.63;4.57;;;;;;;18.10;57.43;96836.13;5086128;28;20063;-67
2021/08/17 01:24:31;;;;;;;6.00;4.10;;;;;;;18.04;57.31;96844.25;5086482;28;20089;-68
2021/08/17 01:26:57;;;;;;;6.03;4.47;;;;;;;18.00;57.33;96837.13;5085055;28;20059;-67
2021/08/17 01:29:24;;;;;;;5.03;3.80;;;;;;;17.81;56.76;96823.78;5084945;28;20056;-67
2021/08/17 01:31:51;;;;;;;6.85;4.10;;;;;;;17.87;56.55;96817.28;5085269;28;20427;-68
2021/08/17 01:34:18;;;;;;;6.40;4.07;;;;;;;17.91;57.33;96828.44;5085073;28;20095;-68
2021/08/17 01:36:45;;;;;;;7.25;4.57;;;;;;;17.57;58.38;96796.94;5086412;28;20058;-68
2021/08/17 01:39:12;;;;;;;5.63;4.13;;;;;;;17.34;58.85;96778.00;5086911;28;20060;-67
2021/08/17 01:41:39;;;;;;;7.97;4.30;;;;;;;15.61;58.67;96487.81;5086335;28;20735;-67
2021/08/17 01:44:12;;;;;;;8.20;4.80;;;;;;;17.73;59.04;96822.31;5084697;28;20068;-68
2021/08/17 01:46:46;;;;;;;12.17;5.33;;;;;;;17.82;58.83;96825.38;5084569;28;20052;-67
2021/08/17 01:49:20;;;;;;;7.95;4.70;;;;;;;17.65;58.99;96815.22;5086287;28;20079;-67
2021/08/17 01:51:47;;;;;;;7.57;4.80;;;;;;;17.72;59.35;96826.34;5084863;28;20105;-67
2021/08/17 01:54:15;;;;;;;7.28;4.43;;;;;;;17.56;59.20;96823.34;5084651;28;20121;-67
2021/08/17 01:56:43;;;;;;;5.93;4.50;;;;;;;17.62;59.09;96822.47;5086034;28;20511;-67
2021/08/17 01:59:13;;;;;;;8.35;4.32;;;;;;;17.39;58.33;96785.13;5084961;28;20090;-66
2021/08/17 02:01:43;;;;;;;8.32;3.97;;;;;;;17.22;58.77;96814.16;5083977;28;20060;-67
2021/08/17 02:04:10;;;;;;;5.70;4.20;;;;;;;16.94;58.81;96758.53;5084341;28;20577;-68
2021/08/17 02:06:37;;;;;;;6.55;4.30;;;;;;;17.41;58.85;96810.72;5085029;28;20055;-68
2021/08/17 02:09:04;;;;;;;16.50;5.95;;;;;;;17.41;61.54;96810.72;5084101;28;20130;-67
2021/08/17 02:11:31;;;;;;;5.57;4.43;;;;;;;17.23;60.17;96812.97;5084710;28;20678;-68
2021/08/17 02:13:57;;;;;;;6.13;4.10;;;;;;;17.25;60.24;96807.72;5084020;28;20152;-69
2021/08/17 02:16:24;;;;;;;6.35;4.40;;;;;;;16.84;60.13;96753.88;5084422;28;20441;-69
2021/08/17 02:18:51;;;;;;;5.85;4.43;;;;;;;17.30;59.84;96804.47;5084326;28;20062;-69
2021/08/17 02:21:18;;;;;;;6.93;4.22;;;;;;;17.14;60.02;96813.47;5085757;28;20056;-68
2021/08/17 02:23:44;;;;;;;10.35;4.43;;;;;;;17.20;59.89;96811.00;5083998;28;20066;-68
2021/08/17 02:26:11;;;;;;;6.00;4.13;;;;;;;17.20;59.71;96809.00;5085771;28;20056;-68
2021/08/17 02:28:38;;;;;;;6.13;3.95;;;;;;;16.88;59.29;96771.41;5085364;28;20056;-68
2021/08/17 02:31:05;;;;;;;4.18;3.42;;;;;;;16.98;59.75;96809.66;5083819;28;20072;-69
2021/08/17 02:33:32;;;;;;;5.55;4.15;;;;;;;17.20;58.82;96811.00;5084170;28;20438;-69
2021/08/17 02:35:59;;;;;;;6.13;4.00;;;;;;;16.58;58.57;96707.84;5083912;28;20044;-68
2021/08/17 02:38:25;;;;;;;7.43;4.82;;;;;;;17.22;58.76;96808.56;5084098;28;20052;-68
2021/08/17 02:40:52;;;;;;;5.45;3.92;;;;;;;16.72;58.79;96740.44;5085330;28;20674;-69
2021/08/17 02:43:24;;;;;;;5.20;3.88;;;;;;;17.01;59.47;96803.25;5084135;28;20062;-68
2021/08/17 02:45:55;;;;;;;8.65;4.45;;;;;;;16.43;59.80;96740.72;5085430;28;20573;-68
2021/08/17 02:48:23;;;;;;;5.20;3.97;;;;;;;16.84;60.51;96799.44;5084058;28;20476;-68
2021/08/17 02:50:50;;;;;;;5.38;3.90;;;;;;;16.43;59.97;96746.31;5083521;28;20506;-68
2021/08/17 02:53:17;;;;;;;5.47;3.92;;;;;;;16.50;60.34;96774.22;5084278;28;20056;-67
2021/08/17 02:55:45;;;;;;;6.90;4.55;;;;;;;16.88;59.70;96805.00;5083351;28;20438;-67
2021/08/17 02:58:12;;;;;;;7.35;3.70;;;;;;;16.87;59.46;96803.38;5085274;28;20150;-67
2021/08/17 03:00:40;;;;;;;5.53;3.97;;;;;;;14.18;59.36;96384.75;5083335;28;20060;-68
2021/08/17 03:03:08;;;;;;;5.70;3.78;;;;;;;16.87;59.45;96811.78;5084748;28;20081;-67
2021/08/17 03:05:35;;;;;;;4.85;3.65;;;;;;;16.86;60.18;96801.81;5084969;28;20067;-67
2021/08/17 03:08:05;;;;;;;5.68;4.22;;;;;;;16.60;59.13;96762.13;5083785;28;20091;-68
2021/08/17 03:10:35;;;;;;;6.10;4.28;;;;;;;16.63;59.85;96776.50;5083064;28;20138;-67
2021/08/17 03:13:05;;;;;;;6.85;4.22;;;;;;;16.71;59.89;96812.34;5083346;28;20044;-67
2021/08/17 03:15:33;;;;;;;6.35;4.30;;;;;;;16.60;60.46;96815.28;5082147;28;20075;-65
2021/08/17 03:18:04;;;;;;;6.78;4.10;;;;;;;16.63;60.64;96810.06;5084144;28;20048;-67
2021/08/17 03:20:32;;;;;;;6.65;4.00;;;;;;;16.45;61.82;96811.00;5082718;28;20052;-67
2021/08/17 03:23:00;;;;;;;9.27;5.05;;;;;;;16.50;61.96;96813.38;5082979;28;20056;-68
2021/08/17 03:25:27;;;;;;;10.20;4.93;;;;;;;16.17;62.33;96769.34;5084526;28;20513;-67
2021/08/17 03:27:55;;;;;;;10.95;5.85;;;;;;;16.42;63.95;96811.81;5083879;28;20084;-67
2021/08/17 03:30:24;;;;;;;10.23;5.82;;;;;;;16.27;65.44;96810.38;5083985;28;20137;-67
2021/08/17 03:32:51;;;;;;;13.70;6.28;;;;;;;16.16;65.94;96820.84;5084213;28;20052;-67
2021/08/17 03:35:18;;;;;;;13.40;6.22;;;;;;;16.19;65.73;96814.44;5084338;28;20052;-61
2021/08/17 03:37:45;;;;;;;10.65;5.93;;;;;;;15.95;66.17;96793.06;5082634;28;20075;-60
2021/08/17 03:40:17;;;;;;;8.00;5.45;;;;;;;15.99;66.44;96799.44;5082390;28;20056;-61
2021/08/17 03:42:44;;;;;;;7.63;4.75;;;;;;;16.03;64.50;96816.97;5084268;28;20059;-62
2021/08/17 03:45:14;;;;;;;10.07;5.50;;;;;;;15.80;64.81;96757.28;5082630;28;20054;-61
2021/08/17 03:47:41;;;;;;;9.07;4.80;;;;;;;16.31;64.01;96816.72;5082722;28;20056;-62
2021/08/17 03:50:10;;;;;;;6.63;4.40;;;;;;;16.19;63.21;96820.03;5083827;28;20077;-61
2021/08/17 03:52:38;;;;;;;6.28;5.03;;;;;;;16.17;65.53;96822.44;5082590;28;20055;-62
2021/08/17 03:55:06;;;;;;;6.70;4.15;;;;;;;16.22;63.39;96813.59;5083375;28;20494;-60
2021/08/17 03:57:33;;;;;;;11.25;4.00;;;;;;;16.27;62.54;96810.38;5082380;28;20129;-64
2021/08/17 04:00:00;;;;;;;7.63;4.20;;;;;;;16.30;61.81;96808.75;5082149;28;20668;-61
2021/08/17 04:02:27;;;;;;;7.05;3.80;;;;;;;16.37;61.20;96787.13;5084192;28;20052;-61
2021/08/17 04:04:54;;;;;;;7.97;3.90;;;;;;;16.27;61.21;96776.84;5084092;28;20056;-61
2021/08/17 04:07:21;;;;;;;8.48;4.55;;;;;;;16.27;60.85;96768.44;5082409;28;20076;-62
2021/08/17 04:09:47;;;;;;;5.93;4.18;;;;;;;16.15;60.69;96768.97;5083353;28;20056;-64
2021/08/17 04:12:14;;;;;;;9.48;4.82;;;;;;;16.74;61.00;96807.97;5083669;28;20048;-61
2021/08/17 04:14:41;;;;;;;8.07;5.50;;;;;;;16.47;61.00;96761.06;5081401;28;20143;-61
2021/08/17 04:17:08;;;;;;;10.70;5.38;;;;;;;16.79;61.64;96808.28;5081569;28;20067;-62
2021/08/17 04:19:38;;;;;;;8.50;5.30;;;;;;;16.78;61.33;96803.09;5081911;28;20408;-64
2021/08/17 04:22:06;;;;;;;11.70;4.43;;;;;;;16.72;60.95;96796.38;5082117;28;20059;-63
2021/08/17 04:24:33;;;;;;;13.63;4.80;;;;;;;16.71;60.19;96766.84;5081466;28;20510;-63
2021/08/17 04:27:01;;;;;;;10.43;4.30;;;;;;;17.01;60.00;96797.66;5082211;28;20143;-61
2021/08/17 04:29:28;;;;;;;16.70;5.18;;;;;;;16.65;59.45;96730.13;5081610;28;20056;-61
2021/08/17 04:31:55;;;;;;;17.63;5.25;;;;;;;17.31;58.41;96800.47;5082052;28;20048;-62
2021/08/17 04:34:22;;;;;;;14.30;6.00;;;;;;;16.88;58.83;96735.03;5081640;28;20066;-62
2021/08/17 04:36:49;;;;;;;12.85;8.90;;;;;;;17.50;58.48;96802.63;5081474;28;20494;-62
2021/08/17 04:39:16;;;;;;;14.23;7.68;;;;;;;17.50;58.93;96803.41;5081640;28;20446;-61
2021/08/17 04:41:43;;;;;;;11.20;6.78;;;;;;;17.68;58.43;96817.19;5081685;28;20064;-62
2021/08/17 04:44:10;;;;;;;8.82;4.63;;;;;;;17.86;56.85;96798.09;5081735;28;20062;-61
2021/08/17 04:46:37;;;;;;;10.85;5.80;;;;;;;18.12;56.00;96811.28;5081759;28;20052;-63
2021/08/17 04:49:06;;;;;;;12.18;5.47;;;;;;;18.06;55.42;96754.13;5081876;28;20079;-61
2021/08/17 04:51:33;;;;;;;13.05;5.07;;;;;;;18.33;54.98;96777.28;5082865;28;20505;-62
2021/08/17 04:54:00;;;;;;;16.25;6.57;;;;;;;18.26;55.03;96748.59;5082884;28;20094;-63
2021/08/17 04:56:26;;;;;;;14.05;6.43;;;;;;;18.52;54.44;96762.56;5081633;28;20562;-62
2021/08/17 04:58:54;;;;;;;14.23;5.22;;;;;;;18.89;53.58;96798.69;5081650;28;20052;-61
2021/08/17 05:01:21;;;;;;;10.57;5.18;;;;;;;18.84;53.65;96768.31;5081483;28;20052;-61
2021/08/17 05:03:48;;;;;;;9.13;4.60;;;;;;;18.96;53.47;96804.19;5081541;28;20063;-61
2021/08/17 05:06:15;;;;;;;11.45;4.78;;;;;;;19.46;52.85;96799.16;5081669;28;20760;-63
2021/08/17 05:08:42;;;;;;;10.40;5.35;;;;;;;18.92;52.51;96679.94;5083153;28;20052;-60
2021/08/17 05:11:09;;;;;;;9.30;4.60;;;;;;;19.82;52.05;96789.94;5081492;28;20071;-61
2021/08/17 05:13:36;;;;;;;8.38;4.75;;;;;;;19.65;51.91;96777.09;5081317;28;20095;-65
2021/08/17 05:16:03;;;;;;;7.57;4.35;;;;;;;20.05;50.94;96778.53;5080646;28;20143;-64
2021/08/17 05:18:32;;;;;;;9.38;4.88;;;;;;;20.04;50.13;96748.84;5082623;28;20052;-63
2021/08/17 05:21:00;;;;;;;6.20;4.57;;;;;;;20.32;49.18;96771.44;5071316;28;20459;-61
2021/08/17 05:23:28;;;;;;;7.80;5.10;;;;;;;20.53;48.88;96804.66;5081211;28;20058;-64
2021/08/17 05:25:55;;;;;;;10.60;5.38;;;;;;;20.21;49.70;96754.06;5082717;28;20052;-63
2021/08/17 05:28:23;;;;;;;13.75;5.63;;;;;;;20.56;49.48;96774.84;5081292;28;20250;-62
2021/08/17 05:30:50;;;;;;;10.65;5.35;;;;;;;20.76;49.43;96789.59;5082641;28;20483;-64
2021/08/17 05:33:17;;;;;;;13.60;5.68;;;;;;;20.60;49.29;96753.81;5082815;28;20138;-63
2021/08/17 05:35:44;;;;;;;9.73;5.88;;;;;;;20.94;49.46;96789.91;5082254;28;20678;-65
2021/08/17 05:38:11;;;;;;;15.80;5.65;;;;;;;21.13;49.00;96791.81;5082443;28;20537;-62
2021/08/17 05:40:38;;;;;;;14.32;6.20;;;;;;;20.30;48.92;96644.50;5082205;28;20047;-62
2021/08/17 05:43:09;;;;;;;14.18;5.65;;;;;;;21.38;48.84;96791.88;5084130;28;20060;-62
2021/08/17 05:45:53;;;;;;;11.02;5.00;;;;;;;21.52;48.93;96785.81;5084956;28;20147;-62
2021/08/17 05:48:20;;;;;;;13.63;5.80;;;;;;;21.66;48.82;96791.03;5086547;28;20051;-63
2021/08/17 05:50:47;;;;;;;12.13;5.43;;;;;;;21.72;48.53;96786.41;5084508;28;20056;-61
2021/08/17 05:53:14;;;;;;;13.57;5.78;;;;;;;21.71;48.36;96753.81;5086057;28;20056;-63
2021/08/17 05:55:41;;;;;;;14.02;7.05;;;;;;;22.13;47.51;96786.31;5084046;28;20447;-62
2021/08/17 05:58:07;;;;;;;10.02;5.68;;;;;;;22.12;47.92;96773.47;5084949;28;20088;-63
2021/08/17 06:00:34;;;;;;;8.27;5.45;;;;;;;21.70;47.25;96672.50;5085993;28;20072;-62
2021/08/17 06:03:02;;;;;;;12.70;6.15;;;;;;;22.48;46.61;96766.66;5086472;28;20091;-62
2021/08/17 06:05:29;;;;;;;12.68;5.60;;;;;;;;;;5084027;28;20511;-61
2021/08/17 06:07:56;;;;;;;13.05;5.03;;;;;;;21.85;45.06;96626.47;5070962;28;20051;-62
2021/08/17 06:10:22;;;;;;;12.90;5.97;;;;;;;22.79;45.83;96764.78;5078979;28;20048;-67
2021/08/17 06:12:49;;;;;;;11.68;5.75;;;;;;;22.33;45.83;96647.78;5085597;28;20052;-62
2021/08/17 06:15:16;;;;;;;14.60;6.07;;;;;;;21.70;44.24;96521.03;5079097;28;20499;-61
2021/08/17 06:17:43;;;;;;;9.15;5.43;;;;;;;23.16;44.20;96721.41;5085140;28;20047;-63
2021/08/17 06:20:12;;;;;;;10.40;6.05;;;;;;;23.46;43.40;96746.13;5083498;28;20534;-64
2021/08/17 06:22:39;;;;;;;13.35;5.20;;;;;;;23.72;42.45;96728.56;5083693;28;20047;-63
2021/08/17 06:25:07;;;;;;;10.55;5.40;;;;;;;23.94;42.21;96739.78;5083574;28;20066;-62
2021/08/17 06:27:35;;;;;;;5.60;4.78;;;;;;;23.75;42.87;96757.94;5071768;28;20048;-64
2021/08/17 06:30:04;;;;;;;7.40;5.13;;;;;;;23.66;42.28;96772.03;5074452;28;20060;-63
2021/08/17 06:32:49;;;;;;;13.20;6.95;;;;;;;23.85;42.54;96751.09;5079441;28;20051;-66
2021/08/17 06:35:16;;;;;;;8.35;4.97;;;;;;;24.26;42.02;96761.97;5066553;28;20054;-64
2021/08/17 06:37:43;;;;;;;8.20;6.00;;;;;;;24.49;41.55;96755.72;5081624;28;20056;-62
2021/08/17 06:40:10;;;;;;;10.18;5.47;;;;;;;24.65;41.34;96741.28;5077762;28;20067;-62
2021/08/17 06:42:37;;;;;;;8.25;5.68;;;;;;;24.53;40.76;96713.84;5082499;28;20500;-63
2021/08/17 06:45:05;;;;;;;7.70;6.72;;;;;;;24.88;40.82;96749.19;5068844;28;20135;-63
2021/08/17 06:47:32;;;;;;;12.23;6.50;;;;;;;24.74;40.41;96693.13;5079374;28;20048;-64
2021/08/17 06:49:58;;;;;;;9.35;6.38;;;;;;;24.78;39.42;96654.09;5063289;28;20049;-62
2021/08/17 06:52:25;;;;;;;9.75;6.88;;;;;;;24.81;39.94;96718.34;5077618;28;20058;-64
2021/08/17 06:54:52;;;;;;;15.98;8.95;;;;;;;25.10;39.26;96749.81;5066570;28;20058;-61
2021/08/17 06:57:19;;;;;;;7.85;6.93;;;;;;;25.05;38.49;96662.56;5067399;28;20060;-65
2021/08/17 06:59:46;;;;;;;7.70;6.63;;;;;;;25.56;38.16;96766.81;5076371;28;20056;-61
2021/08/17 07:02:13;;;;;;;10.10;6.65;;;;;;;25.63;37.92;96718.22;5083589;28;20174;-67
2021/08/17 07:04:40;;;;;;;6.78;5.95;;;;;;;26.06;36.96;96741.28;5082600;28;20508;-62
2021/08/17 07:07:07;;;;;;;10.40;7.28;;;;;;;25.38;37.42;96633.53;5074194;28;20513;-66
2021/08/17 07:09:33;;;;;;;8.55;6.88;;;;;;;25.60;36.69;96617.84;5062864;28;20127;-64
2021/08/17 07:12:00;;;;;;;11.07;6.70;;;;;;;26.41;35.78;96710.34;5066511;28;20076;-64
2021/08/17 07:14:27;;;;;;;7.70;6.07;;;;;;;26.59;36.15;96733.72;5064384;28;20140;-61
2021/08/17 07:16:54;;;;;;;11.05;5.68;;;;;;;26.17;35.25;96649.88;5069314;28;20050;-61
2021/08/17 07:19:21;;;;;;;7.25;6.40;;;;;;;26.47;35.63;96640.22;5073882;28;20048;-63
2021/08/17 07:21:47;;;;;;;6.78;6.07;;;;;;;27.31;34.69;96731.63;5081890;28;20071;-73
2021/08/17 07:24:14;;;;;;;10.50;6.78;;;;;;;27.33;34.74;96723.41;5075364;28;20044;-62
2021/08/17 07:26:41;;;;;;;9.13;6.45;;;;;;;26.64;34.92;96647.84;5072725;28;20086;-64
2021/08/17 07:29:07;;;;;;;9.75;6.10;;;;;;;26.94;35.35;96719.75;5063443;28;20049;-66
2021/08/17 07:31:36;;;;;;;9.05;5.93;;;;;;;27.18;34.97;96734.72;5063987;28;20066;-69
2021/08/17 07:34:05;;;;;;;8.38;6.22;;;;;;;26.56;34.79;96617.41;5065948;28;20049;-63
2021/08/17 07:36:33;;;;;;;7.40;5.68;;;;;;;26.80;34.81;96646.59;5062678;28;20048;-73
2021/08/17 07:39:00;;;;;;;9.02;5.97;;;;;;;27.44;34.85;96724.38;5082691;28;20055;-66
2021/08/17 07:41:26;;;;;;;7.03;5.68;;;;;;;26.80;35.33;96680.72;5083673;28;20141;-69
2021/08/17 07:43:53;;;;;;;13.88;7.32;;;;;;;27.15;35.85;96715.78;5081638;28;20056;-67
2021/08/17 07:46:20;;;;;;;11.85;5.97;;;;;;;27.51;34.76;96721.16;5063772;28;20052;-68
2021/08/17 07:48:48;;;;;;;9.88;6.97;;;;;;;27.18;35.84;96716.88;5069886;28;20446;-66
2021/08/17 07:51:16;;;;;;;9.32;6.10;;;;;;;27.49;34.86;96703.78;5074265;28;20057;-68
2021/08/17 07:53:43;;;;;;;7.78;5.97;;;;;;;27.63;34.60;96671.66;5074240;28;20056;-67
2021/08/17 07:56:10;;;;;;;8.82;6.70;;;;;;;27.83;34.20;96666.06;5073082;28;20051;-68
2021/08/17 07:58:37;;;;;;;11.32;7.65;;;;;;;27.71;34.43;96612.31;5077719;28;20063;-66
2021/08/17 08:01:04;;;;;;;10.25;6.03;;;;;;;28.41;33.84;96704.22;5076580;28;20101;-64
2021/08/17 08:03:33;;;;;;;8.57;6.38;;;;;;;27.66;34.66;96656.44;5068911;28;20055;-61
2021/08/17 08:06:00;;;;;;;7.95;7.07;;;;;;;28.05;34.74;96700.63;5076036;28;20122;-60
2021/08/17 08:08:27;;;;;;;7.43;5.70;;;;;;;27.57;34.90;96665.09;5061986;28;20185;-61
2021/08/17 08:10:54;;;;;;;6.95;6.22;;;;;;;28.09;34.34;96689.78;5061591;28;20062;-66
2021/08/17 08:13:21;;;;;;;6.88;5.65;;;;;;;26.32;34.03;96415.00;5061307;28;20452;-63
2021/08/17 08:15:48;;;;;;;9.88;6.55;;;;;;;27.91;34.58;96694.94;5062699;28;20067;-62
2021/08/17 08:18:15;;;;;;;9.85;6.50;;;;;;;28.06;34.91;96684.28;5063101;28;20053;-60
2021/08/17 08:20:42;;;;;;;9.90;6.43;;;;;;;26.47;34.52;96458.38;5062022;28;20059;-59
2021/08/17 08:23:09;;;;;;;6.53;5.82;;;;;;;28.15;34.40;96644.31;5062897;28;20158;-61
2021/08/17 08:25:37;;;;;;;9.48;5.72;;;;;;;28.84;34.22;96686.19;5061559;28;20082;-61
2021/08/17 08:28:05;;;;;;;11.65;6.80;;;;;;;28.97;33.26;96689.47;5062794;28;20139;-61
2021/08/17 08:30:33;;;;;;;7.40;6.35;;;;;;;29.04;33.08;96678.38;5061095;28;20113;-61
2021/08/17 08:33:01;;;;;;;8.50;6.43;;;;;;;28.84;33.11;96677.63;5061228;28;20064;-61
2021/08/17 08:35:29;;;;;;;6.70;6.10;;;;;;;29.17;32.96;96680.88;5061353;28;20102;-61
2021/08/17 08:37:56;;;;;;;6.85;6.15;;;;;;;29.31;32.30;96665.72;5062966;28;20056;-62
2021/08/17 08:40:25;;;;;;;6.75;5.95;;;;;;;29.28;32.06;96647.56;5063069;28;20089;-69
2021/08/17 08:42:53;;;;;;;11.05;6.50;;;;;;;29.27;32.17;96673.75;5062430;28;20108;-68
2021/08/17 08:45:22;;;;;;;7.63;5.97;;;;;;;29.13;32.24;96634.69;5060939;28;20103;-69
2021/08/17 08:47:48;;;;;;;11.25;6.10;;;;;;;29.31;32.78;96668.56;5061010;28;20515;-70
2021/08/17 08:50:16;;;;;;;8.20;6.38;;;;;;;29.53;32.41;96671.66;5062620;28;20052;-67
2021/08/17 08:52:43;;;;;;;9.57;5.90;;;;;;;29.25;32.02;96596.41;5062461;28;20048;-68
2021/08/17 08:55:11;;;;;;;9.60;7.68;;;;;;;29.53;31.62;96620.25;5062701;28;20103;-70
2021/08/17 08:57:38;;;;;;;8.73;5.72;;;;;;;29.61;31.49;96635.63;5062478;28;20064;-67
2021/08/17 09:00:09;;;;;;;13.40;8.68;;;;;;;29.42;31.81;96662.97;5062915;28;20118;-68
2021/08/17 09:02:36;;;;;;;7.35;5.50;;;;;;;29.70;31.66;96661.22;5073088;28;20498;-67
2021/08/17 09:05:05;;;;;;;12.38;6.13;;;;;;;29.98;31.61;96647.91;5080781;28;20053;-67
2021/08/17 09:07:42;;;;;;;12.50;10.90;;;;;;;29.73;31.69;96631.63;5082709;28;20048;-67
2021/08/17 09:10:11;;;;;;;13.35;10.00;;;;;;;30.01;31.63;96655.47;5081077;28;20052;-67
2021/08/17 09:12:43;;;;;;;8.27;7.40;;;;;;;30.29;31.63;96650.75;5082548;28;20548;-67
2021/08/17 09:15:31;;;;;;;10.55;6.22;;;;;;;30.56;30.71;96647.25;5082954;28;20052;-68
2021/08/17 09:18:10;;;;;;;11.52;7.15;;;;;;;30.69;30.67;96650.44;5086404;28;20090;-67
2021/08/17 09:20:48;;;;;;;8.73;5.90;;;;;;;30.53;30.74;96602.53;5085137;28;20059;-68
2021/08/17 09:23:20;;;;;;;6.97;6.38;;;;;;;30.94;30.59;96632.34;5084558;28;20167;-69
2021/08/17 09:25:47;;;;;;;10.38;6.60;;;;;;;30.94;30.52;96626.63;5067435;28;20048;-66
2021/08/17 09:28:32;;;;;;;8.77;6.35;;;;;;;30.97;30.31;96629.75;5064321;28;20059;-67
2021/08/17 09:31:01;;;;;;;6.38;5.88;;;;;;;30.44;30.21;96541.94;5066343;28;20245;-67
2021/08/17 09:33:41;;;;;;;7.25;6.30;;;;;;;30.89;29.96;96610.22;5064467;28;20946;-67
2021/08/17 09:36:09;;;;;;;6.60;5.88;;;;;;;31.28;30.14;96615.25;5064497;28;20076;-67
2021/08/17 09:38:36;;;;;;;12.50;6.75;;;;;;;30.98;29.22;96528.31;5077896;28;20545;-66
2021/08/17 09:41:17;;;;;;;6.13;5.53;;;;;;;31.57;29.07;96603.34;5068373;28;20109;-64
2021/08/17 09:44:05;;;;;;;7.10;5.80;;;;;;;31.97;28.97;96608.53;5069099;28;20053;-64
2021/08/17 09:46:37;;;;;;;9.65;7.07;;;;;;;31.74;28.88;96612.69;5066485;28;20048;-65
2021/08/17 09:49:18;;;;;;;7.50;5.95;;;;;;;31.88;28.82;96609.59;5071764;28;20044;-68
2021/08/17 09:51:45;;;;;;;6.35;5.53;;;;;;;31.97;29.30;96602.78;5070704;28;20067;-64
2021/08/17 09:54:13;;;;;;;9.27;6.65;;;;;;;32.15;28.58;96596.50;5085612;28;20078;-61
2021/08/17 09:56:39;;;;;;;6.47;5.88;;;;;;;31.90;28.79;96591.88;5083602;28;20060;-63
2021/08/17 09:59:07;;;;;;;6.50;5.60;;;;;;;32.03;28.45;96584.28;5084328;28;20502;-59
2021/08/17 10:01:35;;;;;;;9.50;6.18;;;;;;;31.83;28.40;96546.53;5069986;28;20048;-63
2021/08/17 10:04:03;;;;;;;8.88;6.20;;;;;;;32.43;28.96;96588.63;5078340;28;20056;-66
2021/08/17 10:06:30;;;;;;;7.63;6.35;;;;;;;31.82;28.97;96544.97;5070163;28;20063;-65
2021/08/17 10:08:58;;;;;;;6.88;5.75;;;;;;;32.19;29.15;96540.47;5080898;28;20499;-67
2021/08/17 10:11:25;;;;;;;6.75;5.47;;;;;;;32.16;28.79;96592.34;5082667;28;20048;-66
2021/08/17 10:13:52;;;;;;;7.40;6.15;;;;;;;32.45;28.34;96573.75;5076578;28;20529;-69
2021/08/17 10:16:19;;;;;;;8.50;6.32;;;;;;;32.52;28.06;96530.19;5065547;28;20064;-63
2021/08/17 10:18:47;;;;;;;7.45;6.00;;;;;;;32.90;27.59;96564.44;5071030;28;20930;-60
2021/08/17 10:21:17;;;;;;;6.55;5.90;;;;;;;32.56;27.73;96502.00;5068437;28;20404;-61
2021/08/17 10:23:44;;;;;;;8.27;6.35;;;;;;;32.43;27.52;96467.38;5063864;28;20503;-62
2021/08/17 10:26:33;;;;;;;8.23;6.05;;;;;;;33.02;27.75;96548.69;5065548;28;20499;-64
2021/08/17 10:29:00;;;;;;;7.70;5.18;;;;;;;33.35;27.95;96564.91;5065560;28;20546;-68
2021/08/17 10:31:31;;;;;;;10.65;5.40;;;;;;;33.30;27.27;96552.16;5081646;28;20152;-62
2021/08/17 10:34:01;;;;;;;8.32;6.10;;;;;;;33.51;27.70;96549.69;5085269;28;20422;-62
2021/08/17 10:36:36;;;;;;;7.28;5.32;;;;;;;33.59;27.61;96550.66;5083023;28;20060;-62
2021/08/17 10:39:25;;;;;;;7.78;5.90;;;;;;;33.84;27.00;96542.84;5083589;28;20669;-68
2021/08/17 10:41:54;;;;;;;6.78;5.50;;;;;;;33.36;27.80;96535.66;5079850;28;21143;-64
2021/08/17 10:44:32;;;;;;;7.32;5.88;;;;;;;32.99;27.81;96515.31;5063328;28;20174;-60
2021/08/17 10:47:07;;;;;;;6.88;5.72;;;;;;;33.25;27.50;96532.88;5083512;28;20829;-60
2021/08/17 10:49:38;;;;;;;5.63;5.13;;;;;;;32.72;28.17;96530.63;5078598;28;20498;-74
2021/08/17 10:52:07;;;;;;;8.43;5.90;;;;;;;32.77;28.24;96526.91;5068805;28;20232;-73
2021/08/17 10:54:36;;;;;;;5.82;5.32;;;;;;;33.22;27.50;96521.69;5078602;28;20056;-70
2021/08/17 10:57:21;;;;;;;7.25;6.10;;;;;;;32.96;28.40;96515.63;5081555;28;20044;-71
2021/08/17 10:59:50;;;;;;;6.85;5.85;;;;;;;33.15;28.11;96525.13;5071148;28;20044;-70
2021/08/17 11:02:24;;;;;;;6.88;5.80;;;;;;;32.72;27.83;96478.97;5084947;28;20048;-68
2021/08/17 11:04:51;;;;;;;7.65;5.63;;;;;;;32.42;28.41;96449.41;5085208;28;20051;-69
2021/08/17 11:07:32;;;;;;;5.80;5.30;;;;;;;32.60;27.56;96411.47;5085147;28;20052;-68
2021/08/17 11:10:04;;;;;;;5.25;4.85;;;;;;;32.73;27.87;96456.78;5083851;28;20056;-70
2021/08/17 11:12:39;;;;;;;6.83;5.63;;;;;;;33.40;27.43;96493.09;5084567;28;20056;-70
2021/08/17 11:15:08;;;;;;;6.20;5.60;;;;;;;33.80;27.83;96493.50;5084151;28;20962;-72
2021/08/17 11:17:35;;;;;;;6.15;5.63;;;;;;;33.61;27.20;96451.09;5084455;28;20150;-70
2021/08/17 11:20:04;;;;;;;6.70;6.00;;;;;;;33.25;27.56;96383.56;5084386;28;20079;-70
2021/08/17 11:22:37;;;;;;;6.18;5.57;;;;;;;34.02;26.69;96484.66;5082851;28;20078;-70
2021/08/17 11:25:07;;;;;;;6.45;5.78;;;;;;;33.98;27.30;96481.28;5084328;28;20052;-69
2021/08/17 11:27:39;;;;;;;8.27;6.00;;;;;;;34.46;27.61;96478.38;5082787;28;20048;-70
2021/08/17 11:30:16;;;;;;;8.55;7.22;;;;;;;34.72;26.62;96453.41;5084906;28;20147;-70
2021/08/17 11:32:45;;;;;;;8.65;5.95;;;;;;;34.73;26.58;96451.31;5084158;28;20610;-70
2021/08/17 11:35:14;;;;;;;6.75;5.55;;;;;;;34.30;27.28;96482.22;5082497;28;20059;-70
2021/08/17 11:37:44;;;;;;;8.40;6.18;;;;;;;34.20;27.22;96473.19;5083809;28;20116;-72